Time;durP1;ratioP1;P1;durP2;ratioP2;P2;SDS_P1;SDS_P2;PMS_P1;PMS_P2;Temp;Humidity;BMP_temperature;BMP_pressure;BME280_temperature;BME280_humidity;BME280_pressure;Samples;Min_cycle;Max_cycle;Signal;HPM_P1;HPM_P2
2023/04/23 00:01:39;;;;;;;4.33;3.93;;;14.30;99.90;;;;;;5047674;28;20918;-71
2023/04/23 00:04:27;;;;;;;4.70;2.93;;;14.20;99.90;;;;;;5044450;28;21029;-71
2023/04/23 00:07:13;;;;;;;8.10;4.30;;;14.20;99.90;;;;;;5051455;28;20495;-72
2023/04/23 00:10:00;;;;;;;11.03;4.03;;;14.20;99.90;;;;;;5057513;28;20807;-72
2023/04/23 00:12:47;;;;;;;7.47;4.07;;;14.20;99.90;;;;;;5054279;28;20999;-71
2023/04/23 00:15:34;;;;;;;5.77;4.20;;;14.30;99.90;;;;;;5058822;28;20457;-71
2023/04/23 00:18:19;;;;;;;8.07;3.63;;;14.20;99.90;;;;;;5040513;28;20434;-71
2023/04/23 00:21:05;;;;;;;4.90;4.30;;;14.20;99.90;;;;;;5046463;28;20452;-71
2023/04/23 00:23:50;;;;;;;4.70;3.93;;;14.20;99.90;;;;;;5047312;28;20532;-71
2023/04/23 00:26:36;;;;;;;5.53;4.33;;;14.10;99.90;;;;;;5052230;28;20477;-70
2023/04/23 00:29:23;;;;;;;6.03;4.10;;;14.10;99.90;;;;;;5050605;28;20821;-70
2023/04/23 00:32:09;;;;;;;7.27;4.03;;;14.10;99.90;;;;;;5045327;28;20414;-70
2023/04/23 00:34:55;;;;;;;12.50;5.43;;;14.00;99.90;;;;;;5059381;28;20808;-70
2023/04/23 00:37:41;;;;;;;6.20;4.00;;;14.00;99.90;;;;;;5047729;28;20450;-70
2023/04/23 00:40:26;;;;;;;4.97;4.10;;;14.00;99.90;;;;;;5049062;28;20466;-73
2023/04/23 00:43:12;;;;;;;5.80;4.03;;;13.90;99.90;;;;;;5054319;28;20421;-70
2023/04/23 00:46:00;;;;;;;9.67;5.53;;;13.90;99.90;;;;;;5049566;28;21034;-72
2023/04/23 00:48:46;;;;;;;6.97;4.20;;;13.80;99.90;;;;;;5050655;28;20588;-71
2023/04/23 00:51:32;;;;;;;5.50;4.27;;;13.80;99.90;;;;;;5046608;28;20463;-72
2023/04/23 00:54:17;;;;;;;10.03;4.53;;;13.90;99.90;;;;;;5050523;28;20515;-70
2023/04/23 00:57:04;;;;;;;5.10;3.93;;;13.90;99.90;;;;;;5051800;28;20445;-70
2023/04/23 00:59:50;;;;;;;8.00;4.33;;;13.80;99.90;;;;;;5054121;28;20939;-71
2023/04/23 01:02:37;;;;;;;8.10;4.53;;;13.80;99.90;;;;;;5048280;28;20457;-71
2023/04/23 01:05:24;;;;;;;7.80;4.20;;;13.80;99.90;;;;;;5048630;28;20480;-71
2023/04/23 01:08:14;;;;;;;6.23;4.13;;;13.90;99.90;;;;;;5049868;28;20422;-71
2023/04/23 01:11:00;;;;;;;6.20;4.80;;;13.80;99.90;;;;;;5046085;28;20448;-72
2023/04/23 01:13:46;;;;;;;6.03;4.80;;;13.80;99.90;;;;;;5049313;28;20519;-71
2023/04/23 01:16:32;;;;;;;4.87;3.90;;;13.80;99.90;;;;;;5051133;28;21037;-70
2023/04/23 01:19:19;;;;;;;5.80;4.37;;;13.80;99.90;;;;;;5051234;28;20590;-71
2023/04/23 01:22:10;;;;;;;5.30;4.40;;;13.80;99.90;;;;;;5048666;28;20948;-71
2023/04/23 01:24:57;;;;;;;5.50;3.90;;;13.80;99.90;;;;;;5045648;28;20485;-71
2023/04/23 01:27:42;;;;;;;5.30;4.33;;;13.80;99.90;;;;;;5043751;28;20487;-71
2023/04/23 01:30:28;;;;;;;14.97;4.33;;;13.70;99.90;;;;;;5048680;28;20920;-71
2023/04/23 01:33:16;;;;;;;7.80;5.57;;;13.70;99.90;;;;;;5059907;28;20438;-72
2023/04/23 01:36:03;;;;;;;7.20;4.70;;;13.60;99.90;;;;;;5045577;28;20485;-72
2023/04/23 01:38:50;;;;;;;9.33;5.47;;;13.50;99.90;;;;;;5048102;28;20611;-70
2023/04/23 01:41:37;;;;;;;5.90;5.30;;;13.50;99.90;;;;;;5053276;28;20497;-71
2023/04/23 01:44:22;;;;;;;5.10;4.60;;;13.50;99.90;;;;;;5043550;28;20523;-71
2023/04/23 01:47:08;;;;;;;11.67;5.10;;;13.60;99.90;;;;;;5044871;28;20455;-71
2023/04/23 01:49:54;;;;;;;14.93;5.60;;;13.60;99.90;;;;;;5043662;28;20417;-72
2023/04/23 01:52:40;;;;;;;6.73;5.40;;;13.50;99.90;;;;;;5050552;28;20964;-72
2023/04/23 01:55:27;;;;;;;6.10;4.93;;;13.60;99.90;;;;;;5053699;28;20542;-72
2023/04/23 01:58:13;;;;;;;6.50;5.00;;;13.60;99.90;;;;;;5055569;28;20453;-71
2023/04/23 02:00:59;;;;;;;7.23;4.30;;;13.60;99.90;;;;;;5045984;28;20507;-71
2023/04/23 02:03:45;;;;;;;6.97;5.50;;;13.70;99.90;;;;;;5047242;28;20937;-70
2023/04/23 02:06:31;;;;;;;13.33;5.20;;;13.70;99.90;;;;;;5055092;28;20464;-71
2023/04/23 02:09:16;;;;;;;7.30;4.90;;;13.70;99.90;;;;;;5051984;28;20439;-73
2023/04/23 02:12:04;;;;;;;9.07;6.10;;;13.70;99.90;;;;;;5050462;28;20460;-70
2023/04/23 02:14:49;;;;;;;8.00;5.90;;;13.60;99.90;;;;;;5045215;28;20660;-71
2023/04/23 02:17:35;;;;;;;7.70;5.43;;;13.60;99.90;;;;;;5057006;28;20447;-70
2023/04/23 02:20:21;;;;;;;6.40;5.37;;;13.60;99.90;;;;;;5047079;28;20462;-72
2023/04/23 02:23:08;;;;;;;11.30;6.40;;;13.70;99.90;;;;;;5055016;28;20983;-71
2023/04/23 02:25:53;;;;;;;8.97;6.40;;;13.70;99.90;;;;;;5050880;28;20839;-72
2023/04/23 02:28:40;;;;;;;6.50;5.63;;;13.60;99.90;;;;;;5051200;28;20503;-72
2023/04/23 02:31:26;;;;;;;8.50;6.00;;;13.60;99.90;;;;;;5054911;28;20725;-71
2023/04/23 02:34:11;;;;;;;8.37;5.93;;;13.60;99.90;;;;;;5049956;28;20438;-71
2023/04/23 02:36:57;;;;;;;10.93;6.47;;;13.70;99.90;;;;;;5050206;28;20444;-71
2023/04/23 02:39:43;;;;;;;12.00;7.00;;;13.60;99.90;;;;;;5052106;28;20454;-71
2023/04/23 02:42:28;;;;;;;8.50;5.80;;;13.60;99.90;;;;;;5052686;28;21031;-71
2023/04/23 02:45:15;;;;;;;10.97;5.70;;;13.60;99.90;;;;;;5050828;28;20491;-72
2023/04/23 02:48:01;;;;;;;10.53;5.40;;;13.70;99.90;;;;;;5057527;28;20473;-71
2023/04/23 02:50:46;;;;;;;8.60;5.70;;;13.70;99.90;;;;;;5053153;28;20453;-70
2023/04/23 02:53:32;;;;;;;8.80;5.43;;;13.70;99.90;;;;;;5053781;28;20427;-70
2023/04/23 02:56:18;;;;;;;6.97;6.17;;;13.70;99.90;;;;;;5055877;28;20448;-72
2023/04/23 02:59:04;;;;;;;7.30;5.80;;;13.60;99.90;;;;;;5050963;28;20450;-72
2023/04/23 03:01:52;;;;;;;7.73;5.97;;;13.60;99.90;;;;;;5056010;28;20421;-71
2023/04/23 03:04:38;;;;;;;5.80;5.20;;;13.60;99.90;;;;;;5053209;28;20425;-72
2023/04/23 03:07:24;;;;;;;7.60;5.97;;;13.50;99.90;;;;;;5047353;28;20552;-71
2023/04/23 03:10:09;;;;;;;11.07;5.70;;;13.50;99.90;;;;;;5051493;28;20817;-71
2023/04/23 03:12:55;;;;;;;6.30;5.70;;;13.50;99.90;;;;;;5051294;28;20593;-71
2023/04/23 03:15:41;;;;;;;8.20;6.07;;;13.40;99.90;;;;;;5052554;28;20607;-71
2023/04/23 03:18:28;;;;;;;7.17;5.43;;;13.50;99.90;;;;;;5057172;28;20592;-71
2023/04/23 03:21:13;;;;;;;6.90;5.97;;;13.50;99.90;;;;;;5051678;28;20440;-71
2023/04/23 03:24:00;;;;;;;7.07;5.53;;;13.50;99.90;;;;;;5053738;28;20429;-71
2023/04/23 03:26:45;;;;;;;6.60;5.60;;;13.50;99.90;;;;;;5050959;28;20483;-72
2023/04/23 03:29:31;;;;;;;6.83;6.00;;;13.50;99.90;;;;;;5052341;28;20943;-70
2023/04/23 03:32:17;;;;;;;9.03;6.47;;;13.50;99.90;;;;;;5051850;28;20419;-71
2023/04/23 03:35:04;;;;;;;7.40;4.90;;;13.50;99.90;;;;;;5056745;28;20453;-71
2023/04/23 03:37:49;;;;;;;9.10;5.90;;;13.60;99.90;;;;;;5047555;28;20507;-71
2023/04/23 03:40:35;;;;;;;8.33;5.93;;;13.60;99.90;;;;;;5049439;28;20584;-73
2023/04/23 03:43:21;;;;;;;8.33;5.43;;;13.60;99.90;;;;;;5048751;28;20446;-74
2023/04/23 03:46:07;;;;;;;8.10;5.40;;;13.50;99.90;;;;;;5050099;28;20477;-70
2023/04/23 03:48:52;;;;;;;5.67;4.73;;;13.50;99.90;;;;;;5045521;28;20452;-71
2023/04/23 03:51:39;;;;;;;6.73;5.93;;;13.60;99.90;;;;;;5049977;28;20455;-71
2023/04/23 03:54:27;;;;;;;6.63;5.20;;;13.60;99.90;;;;;;5050684;28;20454;-71
2023/04/23 03:57:12;;;;;;;6.77;5.40;;;13.50;99.90;;;;;;5051728;28;20551;-71
2023/04/23 03:59:57;;;;;;;5.43;4.43;;;13.50;99.90;;;;;;5048084;28;20441;-71
2023/04/23 04:02:43;;;;;;;6.17;4.40;;;13.40;99.90;;;;;;5049150;28;20454;-70
2023/04/23 04:05:29;;;;;;;6.67;5.30;;;13.30;99.90;;;;;;5048079;28;20545;-71
2023/04/23 04:08:16;;;;;;;7.00;5.07;;;13.40;99.90;;;;;;5051266;28;20555;-72
2023/04/23 04:11:01;;;;;;;9.90;5.37;;;13.40;99.90;;;;;;5050223;28;20500;-70
2023/04/23 04:13:47;;;;;;;7.10;5.47;;;13.40;99.90;;;;;;5052905;28;20449;-73
2023/04/23 04:16:33;;;;;;;5.93;4.77;;;13.40;99.90;;;;;;5048989;28;20470;-71
2023/04/23 04:19:20;;;;;;;6.73;5.10;;;13.50;99.90;;;;;;5043537;28;20431;-70
2023/04/23 04:22:06;;;;;;;6.43;4.83;;;13.30;99.90;;;;;;5047105;28;20465;-72
2023/04/23 04:24:53;;;;;;;7.20;5.30;;;13.30;99.90;;;;;;5051965;28;20411;-71
2023/04/23 04:27:40;;;;;;;5.90;5.10;;;13.20;99.90;;;;;;5047874;28;20459;-71
2023/04/23 04:30:26;;;;;;;8.80;4.97;;;13.20;99.90;;;;;;5051872;28;20498;-71
2023/04/23 04:33:13;;;;;;;7.10;5.27;;;13.20;99.90;;;;;;5048670;28;20447;-71
2023/04/23 04:35:59;;;;;;;6.23;4.93;;;13.30;99.90;;;;;;5057908;28;20438;-70
2023/04/23 04:38:45;;;;;;;6.07;5.43;;;13.20;99.90;;;;;;5045364;28;20475;-71
2023/04/23 04:41:32;;;;;;;7.03;4.87;;;13.10;99.90;;;;;;5050356;28;22442;-71
2023/04/23 04:44:17;;;;;;;5.17;4.47;;;13.20;99.90;;;;;;5048339;28;20442;-70
2023/04/23 04:47:03;;;;;;;8.00;5.03;;;13.30;99.90;;;;;;5049722;28;20478;-70
2023/04/23 04:49:49;;;;;;;6.47;3.70;;;13.30;99.90;;;;;;5042843;28;21302;-70
2023/04/23 04:52:36;;;;;;;5.13;3.80;;;13.30;99.90;;;;;;5049770;28;20969;-70
2023/04/23 04:55:21;;;;;;;4.60;4.03;;;13.30;99.90;;;;;;5048388;28;20413;-70
2023/04/23 04:58:08;;;;;;;4.47;3.70;;;13.30;99.90;;;;;;5044330;28;20446;-71
2023/04/23 05:00:54;;;;;;;5.80;3.57;;;13.30;99.90;;;;;;5049721;28;20557;-72
2023/04/23 05:03:40;;;;;;;8.70;4.07;;;13.20;99.90;;;;;;5048000;28;20457;-72
2023/04/23 05:06:27;;;;;;;4.00;3.50;;;13.20;99.90;;;;;;5053911;28;20998;-72
2023/04/23 05:09:13;;;;;;;4.70;3.50;;;13.20;99.90;;;;;;5048157;28;20445;-71
2023/04/23 05:11:58;;;;;;;4.20;3.07;;;13.20;99.90;;;;;;5046222;28;20426;-71
2023/04/23 05:14:45;;;;;;;5.00;3.77;;;13.30;99.90;;;;;;5049978;28;20492;-70
2023/04/23 05:17:31;;;;;;;9.40;3.70;;;13.30;99.90;;;;;;5048514;28;20524;-71
2023/04/23 05:20:17;;;;;;;6.70;3.80;;;13.30;99.90;;;;;;5049214;28;20462;-71
2023/04/23 05:23:02;;;;;;;3.77;3.40;;;13.40;99.90;;;;;;5051241;28;20988;-70
2023/04/23 05:25:50;;;;;;;4.47;3.40;;;13.30;99.90;;;;;;5048857;28;20499;-70
2023/04/23 05:28:36;;;;;;;5.70;3.27;;;13.40;99.90;;;;;;5044288;28;20600;-70
2023/04/23 05:31:23;;;;;;;6.80;3.33;;;13.30;99.90;;;;;;5060943;28;20490;-71
2023/04/23 05:34:09;;;;;;;3.43;2.77;;;13.40;99.90;;;;;;5057549;28;20521;-70
2023/04/23 05:36:54;;;;;;;3.47;3.10;;;13.40;99.90;;;;;;5048962;28;20577;-74
2023/04/23 05:39:40;;;;;;;3.10;2.80;;;13.40;99.90;;;;;;5046476;28;20932;-71
2023/04/23 05:42:26;;;;;;;4.00;3.17;;;13.40;99.90;;;;;;5041112;28;20536;-75
2023/04/23 05:45:12;;;;;;;6.30;3.73;;;13.40;99.90;;;;;;5047541;28;20453;-71
2023/04/23 05:47:59;;;;;;;3.23;2.77;;;13.40;99.90;;;;;;5044774;28;20785;-71
2023/04/23 05:50:44;;;;;;;5.00;3.40;;;13.40;99.90;;;;;;5045571;28;20442;-71
2023/04/23 05:53:30;;;;;;;4.50;3.40;;;13.50;99.90;;;;;;5045843;28;20692;-73
2023/04/23 05:56:16;;;;;;;3.37;3.03;;;13.50;99.90;;;;;;5049450;28;20512;-72
2023/04/23 05:59:01;;;;;;;6.50;3.57;;;13.50;99.90;;;;;;5042530;28;20443;-71
2023/04/23 06:01:47;;;;;;;9.80;3.67;;;13.60;99.90;;;;;;5048494;28;20492;-71
2023/04/23 06:04:34;;;;;;;5.57;3.00;;;13.60;99.90;;;;;;5050865;28;20541;-71
2023/04/23 06:07:20;;;;;;;3.90;3.40;;;13.60;99.90;;;;;;5051141;28;20494;-72
2023/04/23 06:10:07;;;;;;;4.47;3.50;;;13.60;99.90;;;;;;5047532;28;20969;-70
2023/04/23 06:12:54;;;;;;;4.90;3.43;;;13.60;99.90;;;;;;5048767;28;20960;-71
2023/04/23 06:15:40;;;;;;;4.30;3.90;;;13.70;99.90;;;;;;5050296;28;20955;-71
2023/04/23 06:18:26;;;;;;;7.00;4.10;;;13.70;99.90;;;;;;5042898;28;20446;-72
2023/04/23 06:21:13;;;;;;;4.50;4.10;;;13.80;99.90;;;;;;5046441;28;20420;-71
2023/04/23 06:23:59;;;;;;;4.40;3.83;;;14.00;99.90;;;;;;5043187;28;20450;-73
2023/04/23 06:26:44;;;;;;;5.03;3.80;;;14.00;99.90;;;;;;5047899;28;21355;-71
2023/04/23 06:29:30;;;;;;;4.57;4.10;;;14.00;99.90;;;;;;5050674;28;20727;-72
2023/04/23 06:32:16;;;;;;;6.87;4.10;;;14.00;99.90;;;;;;5049596;28;20480;-71
2023/04/23 06:35:03;;;;;;;4.60;4.17;;;13.90;99.90;;;;;;5054636;28;20446;-71
2023/04/23 06:37:50;;;;;;;6.80;4.20;;;14.00;99.90;;;;;;5044406;28;20793;-71
2023/04/23 06:40:35;;;;;;;5.20;4.10;;;14.00;99.90;;;;;;5047226;28;20421;-72
2023/04/23 06:43:21;;;;;;;4.87;3.77;;;14.10;99.90;;;;;;5047239;28;20492;-71
2023/04/23 06:46:06;;;;;;;6.03;4.13;;;14.00;99.90;;;;;;5049340;28;20470;-74
2023/04/23 06:48:52;;;;;;;4.47;3.63;;;14.10;99.90;;;;;;5047948;28;20529;-71
2023/04/23 06:51:37;;;;;;;4.03;3.30;;;14.10;99.90;;;;;;5050892;28;20451;-71
2023/04/23 06:54:25;;;;;;;3.40;3.10;;;14.10;99.90;;;;;;5050732;28;20450;-71
2023/04/23 06:57:11;;;;;;;4.83;3.60;;;14.20;99.90;;;;;;5042402;28;20471;-71
2023/04/23 06:59:56;;;;;;;5.13;4.20;;;14.30;99.90;;;;;;5049815;28;20475;-71
2023/04/23 07:02:42;;;;;;;4.70;4.10;;;14.50;99.90;;;;;;5053177;28;20413;-71
2023/04/23 07:05:28;;;;;;;5.60;4.20;;;14.50;99.90;;;;;;5049593;28;20445;-71
2023/04/23 07:08:14;;;;;;;7.50;5.70;;;14.50;99.90;;;;;;5045941;28;20568;-71
2023/04/23 07:11:02;;;;;;;4.60;3.90;;;14.50;99.90;;;;;;5051209;28;20445;-71
2023/04/23 07:13:47;;;;;;;4.87;4.10;;;14.40;99.90;;;;;;5055051;28;20432;-70
2023/04/23 07:16:33;;;;;;;5.17;4.10;;;14.30;99.90;;;;;;5044741;28;20446;-73
2023/04/23 07:19:18;;;;;;;7.13;4.47;;;14.30;99.90;;;;;;5049008;28;20487;-72
2023/04/23 07:22:05;;;;;;;7.00;4.47;;;14.50;99.90;;;;;;5053403;28;20450;-71
2023/04/23 07:24:51;;;;;;;7.30;5.53;;;14.70;99.90;;;;;;5050161;28;20465;-72
2023/04/23 07:27:38;;;;;;;6.20;3.83;;;14.90;99.90;;;;;;5052011;28;20961;-71
2023/04/23 07:30:25;;;;;;;4.27;3.30;;;14.80;99.90;;;;;;5057796;28;20452;-71
2023/04/23 07:33:11;;;;;;;5.17;4.03;;;14.80;99.90;;;;;;5060606;28;20421;-72
2023/04/23 07:35:57;;;;;;;3.77;3.20;;;14.60;99.90;;;;;;5051272;28;20438;-73
2023/04/23 07:38:43;;;;;;;5.33;3.57;;;14.80;99.90;;;;;;5050814;28;20442;-71
2023/04/23 07:41:29;;;;;;;4.30;3.30;;;14.90;99.90;;;;;;5059021;28;20579;-71
2023/04/23 07:44:15;;;;;;;4.90;3.47;;;14.90;99.90;;;;;;5052288;28;20449;-71
2023/04/23 07:47:01;;;;;;;5.33;3.40;;;15.10;99.90;;;;;;5050042;28;20852;-71
2023/04/23 07:49:47;;;;;;;5.20;3.23;;;15.20;99.90;;;;;;5050250;28;20483;-71
2023/04/23 07:52:32;;;;;;;5.13;2.83;;;15.30;99.90;;;;;;5054972;28;20794;-72
2023/04/23 07:55:19;;;;;;;6.73;4.10;;;15.40;99.90;;;;;;5049541;28;20997;-72
2023/04/23 07:58:05;;;;;;;5.80;3.67;;;15.50;99.90;;;;;;5060925;28;20422;-72
2023/04/23 08:00:52;;;;;;;4.03;3.50;;;15.40;99.90;;;;;;5052864;28;21010;-71
2023/04/23 08:03:38;;;;;;;5.17;3.13;;;15.40;99.90;;;;;;5055851;28;20803;-73
2023/04/23 08:06:23;;;;;;;5.77;4.00;;;15.40;99.90;;;;;;5040762;28;20469;-71
2023/04/23 08:09:09;;;;;;;4.10;3.40;;;15.30;99.90;;;;;;5044007;28;20853;-71
2023/04/23 08:11:56;;;;;;;5.00;4.10;;;15.40;99.90;;;;;;5051799;28;20851;-71
2023/04/23 08:14:42;;;;;;;4.50;3.63;;;15.30;99.90;;;;;;5049257;28;20914;-71
2023/04/23 08:17:29;;;;;;;11.50;5.70;;;15.20;99.90;;;;;;5044878;28;20548;-71
2023/04/23 08:20:15;;;;;;;6.00;3.63;;;15.30;99.90;;;;;;5044786;28;20465;-71
2023/04/23 08:23:00;;;;;;;5.13;3.57;;;15.40;99.90;;;;;;5043273;28;20902;-71
2023/04/23 08:25:46;;;;;;;8.10;4.13;;;15.50;99.90;;;;;;5048734;28;20544;-71
2023/04/23 08:28:32;;;;;;;5.60;3.70;;;15.40;99.90;;;;;;5048538;28;20470;-71
2023/04/23 08:31:17;;;;;;;5.87;4.70;;;15.40;99.90;;;;;;5049689;28;20426;-71
2023/04/23 08:34:05;;;;;;;5.77;3.90;;;15.40;99.90;;;;;;5050399;28;20445;-71
2023/04/23 08:36:50;;;;;;;5.03;3.93;;;15.60;99.90;;;;;;5042832;28;20617;-70
2023/04/23 08:39:36;;;;;;;4.97;3.53;;;15.70;99.90;;;;;;5053259;28;20673;-71
2023/04/23 08:42:29;;;;;;;6.03;3.70;;;15.70;99.90;;;;;;5051402;28;20420;-72
2023/04/23 08:45:15;;;;;;;6.50;4.27;;;15.80;99.90;;;;;;5045403;28;20580;-71
2023/04/23 08:48:01;;;;;;;5.97;3.50;;;15.80;99.90;;;;;;5053419;28;20958;-71
2023/04/23 08:50:49;;;;;;;5.37;3.30;;;16.00;99.90;;;;;;5049960;28;21058;-71
2023/04/23 08:53:35;;;;;;;4.30;3.10;;;16.20;99.90;;;;;;5053397;28;20582;-71
2023/04/23 08:56:21;;;;;;;5.77;3.07;;;16.40;99.90;;;;;;5046316;28;20597;-71
2023/04/23 08:59:07;;;;;;;5.20;3.60;;;16.50;99.90;;;;;;5052951;28;20442;-72
2023/04/23 09:01:54;;;;;;;3.03;2.60;;;16.50;99.90;;;;;;5048098;28;20438;-71
2023/04/23 09:04:41;;;;;;;5.30;2.73;;;16.60;99.90;;;;;;5040507;28;20522;-71
2023/04/23 09:07:28;;;;;;;5.50;3.57;;;16.60;99.90;;;;;;5053866;28;20472;-72
2023/04/23 09:10:15;;;;;;;6.10;3.57;;;16.70;99.90;;;;;;5058064;28;20442;-71
2023/04/23 09:13:00;;;;;;;5.87;2.80;;;16.80;99.90;;;;;;5054864;28;20978;-71
2023/04/23 09:15:46;;;;;;;4.57;3.00;;;16.80;99.90;;;;;;5047065;28;20483;-71
2023/04/23 09:18:32;;;;;;;3.40;2.40;;;16.90;99.90;;;;;;5050938;28;20421;-70
2023/04/23 09:21:17;;;;;;;4.13;3.23;;;16.90;99.90;;;;;;5049218;28;20735;-71
2023/04/23 09:24:06;;;;;;;5.20;2.77;;;17.00;99.90;;;;;;5052034;28;20446;-71
2023/04/23 09:26:53;;;;;;;3.60;3.00;;;17.00;99.90;;;;;;5049272;28;20847;-71
2023/04/23 09:29:38;;;;;;;5.10;3.20;;;17.00;99.90;;;;;;5044610;28;20538;-72
2023/04/23 09:32:32;;;;;;;6.30;2.77;;;17.20;99.90;;;;;;5047844;28;20543;-72
2023/04/23 09:35:19;;;;;;;8.17;3.30;;;17.30;99.90;;;;;;5041682;28;20451;-72
2023/04/23 09:38:09;;;;;;;6.00;3.40;;;17.40;99.90;;;;;;5046496;28;20743;-71
2023/04/23 09:40:56;;;;;;;3.33;2.70;;;17.40;99.90;;;;;;5049377;28;20427;-71
2023/04/23 09:43:42;;;;;;;5.80;2.90;;;17.60;99.90;;;;;;5053804;28;20449;-71
2023/04/23 09:46:36;;;;;;;4.83;2.60;;;17.60;99.90;;;;;;5044387;28;21009;-71
2023/04/23 09:49:22;;;;;;;4.40;3.23;;;17.60;99.90;;;;;;5044799;28;20489;-73
2023/04/23 09:52:08;;;;;;;5.40;3.07;;;17.60;99.90;;;;;;5049588;28;20510;-71
2023/04/23 09:54:56;;;;;;;5.77;3.23;;;17.70;99.90;;;;;;5049863;28;20515;-72
2023/04/23 09:57:43;;;;;;;7.20;3.13;;;17.70;99.90;;;;;;5045910;28;20984;-71
2023/04/23 10:00:33;;;;;;;8.30;2.80;;;17.80;99.90;;;;;;5046869;28;21007;-72
2023/04/23 10:03:27;;;;;;;4.43;2.63;;;17.80;99.90;;;;;;5046663;28;20448;-72
2023/04/23 10:06:15;;;;;;;5.93;2.93;;;17.60;99.90;;;;;;5045249;28;20531;-72
2023/04/23 10:09:00;;;;;;;3.97;2.87;;;17.50;99.90;;;;;;5046540;28;20559;-73
2023/04/23 10:11:46;;;;;;;5.10;2.33;;;17.50;99.90;;;;;;5048595;28;20412;-74
2023/04/23 10:14:33;;;;;;;4.40;2.40;;;17.60;99.90;;;;;;5039963;28;20452;-72
2023/04/23 10:17:19;;;;;;;4.37;2.60;;;17.70;99.90;;;;;;5048520;28;20466;-73
2023/04/23 10:20:05;;;;;;;3.70;2.50;;;17.70;99.90;;;;;;5046830;28;20593;-72
2023/04/23 10:22:55;;;;;;;4.63;2.40;;;17.70;99.90;;;;;;5042805;28;20480;-72
2023/04/23 10:25:42;;;;;;;5.53;3.60;;;17.70;99.90;;;;;;5051613;28;20631;-75
2023/04/23 10:28:33;;;;;;;5.07;3.27;;;17.60;99.90;;;;;;5052385;28;21054;-75
2023/04/23 10:31:20;;;;;;;4.87;2.87;;;17.70;99.90;;;;;;5049645;28;20452;-74
2023/04/23 10:34:07;;;;;;;3.70;2.50;;;17.70;99.90;;;;;;5044162;28;20443;-74
2023/04/23 10:36:53;;;;;;;6.37;3.10;;;17.70;99.90;;;;;;5062794;28;21033;-74
2023/04/23 10:39:39;;;;;;;3.50;2.27;;;17.60;99.90;;;;;;5042635;28;20774;-75
2023/04/23 10:42:26;;;;;;;4.00;2.77;;;17.60;99.90;;;;;;5051512;28;20458;-72
2023/04/23 10:45:16;;;;;;;5.37;2.67;;;17.60;99.90;;;;;;5054347;28;20975;-75
2023/04/23 10:48:04;;;;;;;5.47;2.30;;;17.50;99.90;;;;;;5039506;28;20851;-75
2023/04/23 10:50:58;;;;;;;3.27;2.33;;;17.70;99.90;;;;;;5052490;28;20530;-74
2023/04/23 10:53:43;;;;;;;3.97;2.77;;;17.90;99.90;;;;;;5049514;28;20591;-73
2023/04/23 10:56:30;;;;;;;3.10;2.20;;;17.90;99.90;;;;;;5052831;28;20470;-75
2023/04/23 10:59:20;;;;;;;4.90;2.00;;;18.00;99.90;;;;;;5049053;28;21081;-73
2023/04/23 11:02:08;;;;;;;3.83;2.63;;;18.00;99.90;;;;;;5050963;28;20537;-74
2023/04/23 11:04:57;;;;;;;6.20;2.70;;;18.10;99.90;;;;;;5050902;28;20487;-74
2023/04/23 11:08:01;;;;;;;4.60;2.50;;;18.20;99.90;;;;;;5047960;28;20452;-75
2023/04/23 11:10:56;;;;;;;5.00;2.10;;;18.40;99.90;;;;;;5048318;28;20443;-71
2023/04/23 11:13:53;;;;;;;3.50;2.33;;;18.60;99.90;;;;;;5049375;28;20524;-75
2023/04/23 11:16:38;;;;;;;5.53;2.53;;;18.90;99.90;;;;;;5051995;28;20467;-74
2023/04/23 11:19:24;;;;;;;3.50;2.30;;;19.20;99.90;;;;;;5048083;28;20868;-74
2023/04/23 11:22:16;;;;;;;4.33;2.07;;;19.40;99.90;;;;;;5047871;28;20448;-74
2023/04/23 11:25:02;;;;;;;3.57;2.47;;;19.40;91.00;;;;;;5054580;28;20537;-74
2023/04/23 11:27:49;;;;;;;3.27;2.23;;;19.40;89.50;;;;;;5046642;28;20429;-75
2023/04/23 11:30:34;;;;;;;4.80;2.60;;;19.50;83.10;;;;;;5046102;28;20454;-74
2023/04/23 11:33:20;;;;;;;4.63;2.80;;;19.50;82.10;;;;;;5048915;28;20430;-75
2023/04/23 11:36:07;;;;;;;2.97;2.17;;;19.30;81.60;;;;;;5046337;28;20579;-75
2023/04/23 11:38:57;;;;;;;5.30;1.90;;;19.30;85.90;;;;;;5042644;28;20801;-75
2023/04/23 11:41:42;;;;;;;3.50;2.30;;;19.20;83.20;;;;;;5050262;28;20432;-75
2023/04/23 11:44:28;;;;;;;2.83;2.00;;;19.10;79.80;;;;;;5042396;28;20406;-74
2023/04/23 11:47:17;;;;;;;7.60;2.33;;;19.00;73.80;;;;;;5044048;28;20944;-71
2023/04/23 11:50:02;;;;;;;5.80;2.50;;;19.10;73.90;;;;;;5052090;28;21051;-74
2023/04/23 11:52:48;;;;;;;2.97;2.20;;;19.00;68.40;;;;;;5052402;28;20460;-75
2023/04/23 11:55:36;;;;;;;3.43;2.20;;;19.00;66.20;;;;;;5053712;28;20474;-74
2023/04/23 11:58:22;;;;;;;2.70;1.87;;;19.10;64.20;;;;;;5042205;28;20814;-74
2023/04/23 12:01:08;;;;;;;2.80;2.00;;;19.40;67.80;;;;;;5059736;28;20900;-74
2023/04/23 12:03:53;;;;;;;5.70;2.03;;;19.70;72.20;;;;;;5053715;28;20439;-75
2023/04/23 12:06:41;;;;;;;2.90;1.93;;;19.80;64.80;;;;;;5048985;28;20654;-75
2023/04/23 12:09:28;;;;;;;3.00;2.07;;;19.70;58.60;;;;;;5056319;28;20560;-75
2023/04/23 12:12:15;;;;;;;3.00;1.60;;;19.60;62.30;;;;;;5051159;28;20566;-71
2023/04/23 12:15:04;;;;;;;3.33;1.90;;;19.60;56.70;;;;;;5053561;28;20440;-74
2023/04/23 12:17:51;;;;;;;3.33;2.33;;;19.60;52.90;;;;;;5045101;28;21493;-75
2023/04/23 12:20:36;;;;;;;2.90;1.77;;;19.70;59.30;;;;;;5053795;28;20998;-73
2023/04/23 12:23:26;;;;;;;2.73;1.50;;;19.90;53.90;;;;;;5057275;28;20496;-75
2023/04/23 12:26:13;;;;;;;6.20;2.10;;;20.20;54.00;;;;;;5058203;28;21019;-75
2023/04/23 12:29:00;;;;;;;3.50;1.70;;;20.40;39.70;;;;;;5050452;28;20478;-75
2023/04/23 12:31:46;;;;;;;2.47;1.40;;;20.30;41.40;;;;;;5050283;28;20437;-74
2023/04/23 12:34:32;;;;;;;3.30;1.80;;;20.40;43.30;;;;;;5057586;28;20463;-74
2023/04/23 12:37:17;;;;;;;3.30;1.30;;;20.50;38.70;;;;;;5047104;28;20536;-74
2023/04/23 12:40:06;;;;;;;3.40;2.00;;;20.60;42.70;;;;;;5049542;28;20493;-72
2023/04/23 12:42:51;;;;;;;4.80;1.63;;;20.90;41.60;;;;;;5048041;28;20835;-74
2023/04/23 12:45:39;;;;;;;2.20;1.30;;;21.10;40.00;;;;;;5056518;28;20561;-73
2023/04/23 12:48:25;;;;;;;3.67;1.80;;;21.30;38.50;;;;;;5051612;28;20451;-75
2023/04/23 12:51:10;;;;;;;3.00;1.40;;;21.50;36.10;;;;;;5055785;28;20483;-74
2023/04/23 12:53:56;;;;;;;2.90;1.90;;;21.40;33.20;;;;;;5056313;28;20419;-75
2023/04/23 12:56:42;;;;;;;4.43;1.90;;;21.10;30.30;;;;;;5051111;28;20468;-74
2023/04/23 12:59:28;;;;;;;2.60;1.30;;;21.00;36.00;;;;;;5049061;28;20417;-73
2023/04/23 13:02:15;;;;;;;2.53;1.50;;;21.00;31.30;;;;;;5049405;28;20529;-75
2023/04/23 13:05:01;;;;;;;2.57;1.20;;;21.00;29.50;;;;;;5054285;28;20447;-74
2023/04/23 13:07:47;;;;;;;2.03;1.13;;;21.00;29.60;;;;;;5053750;28;20515;-75
2023/04/23 13:10:33;;;;;;;4.13;3.00;;;20.80;30.20;;;;;;5055291;28;20623;-75
2023/04/23 13:13:19;;;;;;;2.17;1.30;;;20.50;28.90;;;;;;5051727;28;20448;-75
2023/04/23 13:16:05;;;;;;;2.90;1.57;;;20.60;32.00;;;;;;5054417;28;20603;-75
2023/04/23 13:18:52;;;;;;;2.43;1.33;;;20.80;29.40;;;;;;5060530;28;20460;-72
2023/04/23 13:21:37;;;;;;;3.80;1.10;;;21.10;28.80;;;;;;5052966;28;20439;-75
2023/04/23 13:24:23;;;;;;;2.17;1.20;;;21.50;31.10;;;;;;5050942;28;21011;-73
2023/04/23 13:27:09;;;;;;;2.43;1.33;;;21.50;27.60;;;;;;5043454;28;20594;-75
2023/04/23 13:29:55;;;;;;;2.13;1.20;;;21.40;28.10;;;;;;5049618;28;20535;-74
2023/04/23 13:32:41;;;;;;;2.63;1.13;;;21.70;25.40;;;;;;5054872;28;20444;-74
2023/04/23 13:35:28;;;;;;;2.80;1.30;;;21.70;22.90;;;;;;5046215;28;20448;-75
2023/04/23 13:38:14;;;;;;;1.80;1.10;;;21.90;26.80;;;;;;5057486;28;20526;-75
2023/04/23 13:40:59;;;;;;;3.20;1.90;;;22.00;26.30;;;;;;5060659;28;20444;-74
2023/04/23 13:43:45;;;;;;;2.43;1.20;;;21.90;24.60;;;;;;5055357;28;20824;-74
2023/04/23 13:46:31;;;;;;;2.20;1.20;;;22.10;24.90;;;;;;5048217;28;20464;-75
2023/04/23 13:49:17;;;;;;;2.83;1.40;;;22.00;24.30;;;;;;5050264;28;20900;-74
2023/04/23 13:52:05;;;;;;;3.10;1.20;;;22.00;25.00;;;;;;5048258;28;20451;-74
2023/04/23 13:54:51;;;;;;;4.53;1.40;;;21.90;22.30;;;;;;5050811;28;20453;-74
2023/04/23 13:57:37;;;;;;;3.77;1.40;;;21.30;24.20;;;;;;5047888;28;20506;-75
2023/04/23 14:00:23;;;;;;;2.50;1.30;;;21.10;26.10;;;;;;5047241;28;20441;-74
2023/04/23 14:03:08;;;;;;;3.70;1.87;;;21.00;30.70;;;;;;5047312;28;20470;-74
2023/04/23 14:05:54;;;;;;;3.97;1.50;;;20.90;31.60;;;;;;5044415;28;20476;-75
2023/04/23 14:08:41;;;;;;;3.30;1.50;;;21.00;37.20;;;;;;5046419;28;20497;-74
2023/04/23 14:11:27;;;;;;;2.60;1.30;;;21.20;38.20;;;;;;5045228;28;20479;-74
2023/04/23 14:14:13;;;;;;;2.30;1.37;;;21.20;31.90;;;;;;5051070;28;20967;-72
2023/04/23 14:16:58;;;;;;;8.30;2.40;;;21.30;33.40;;;;;;5041555;28;20562;-75
2023/04/23 14:19:44;;;;;;;5.20;1.50;;;21.30;37.50;;;;;;5049707;28;20201;-72
2023/04/23 14:22:30;;;;;;;3.30;1.67;;;21.40;40.60;;;;;;5059763;28;20475;-75
2023/04/23 14:25:25;;;;;;;2.83;1.40;;;21.40;36.80;;;;;;5043535;28;20457;-72